Aviation Digital Data Service (ADDS)

Output produced by METARs form (0846 UTC 19 April 2019)
found at http://www.aviationweather.gov/metar/data/
 
Forecast for: DIAP (ABIDJAN/PORT BOU, CI)
Text: TAF DIAP 190500Z 1906/2012 24005KT 9999 SCT012
Forecast period: 0600 UTC 19 April 2019 to 1200 UTC 20 April 2019
Forecast type: FROM: standard forecast or significant change
Winds: from the WSW (240 degrees) at 6 MPH (5 knots; 2.6 m/s)
Visibility: 6 or more miles 10+ km)
Ceiling: at least 12,000 feet AGL
Clouds: scattered clouds at 1200 feet AGL
Weather: no significant weather forecast for this period
Text: PROB30
Forecast period: 1400 to 2000 UTC 19 April 2019
Forecast type: TEMPORARY: The following changes expected for less than half the time period
Visibility: missing
Ceiling: 1200 feet AGL
Clouds: broken clouds at 1200 feet AGL
few clouds at 2000 feet AGL
Weather: TS  (thunderstorm)